createdAt,value
2022-12-18T00:00:48.013Z,29.93
2022-12-18T00:01:48.279Z,29.93
2022-12-18T00:02:48.614Z,29.82
2022-12-18T00:03:48.796Z,29.93
2022-12-18T00:04:49.001Z,29.93
2022-12-18T00:05:49.222Z,29.93
2022-12-18T00:06:49.472Z,29.93
2022-12-18T00:07:49.683Z,29.82
2022-12-18T00:08:49.942Z,29.93
2022-12-18T00:09:50.163Z,29.93
2022-12-18T00:10:50.431Z,30.02
2022-12-18T00:11:50.664Z,29.93
2022-12-18T00:12:50.914Z,29.93
2022-12-18T00:13:51.151Z,29.93
2022-12-18T00:14:51.394Z,29.82
2022-12-18T00:15:51.648Z,29.82
2022-12-18T00:16:51.915Z,29.93
2022-12-18T00:17:52.136Z,29.82
2022-12-18T00:18:52.387Z,29.82
2022-12-18T00:19:52.616Z,29.72
2022-12-18T00:20:52.866Z,29.82
2022-12-18T00:21:53.087Z,29.93
2022-12-18T00:22:53.356Z,29.82
2022-12-18T00:23:53.570Z,29.82
2022-12-18T00:24:53.797Z,29.82
2022-12-18T00:25:54.027Z,29.82
2022-12-18T00:26:54.291Z,29.82
2022-12-18T00:27:54.520Z,29.82
2022-12-18T00:28:54.759Z,29.82
2022-12-18T00:29:54.979Z,29.82
2022-12-18T00:30:55.229Z,29.82
2022-12-18T00:31:55.554Z,29.82
2022-12-18T00:32:55.722Z,29.72
2022-12-18T00:33:55.921Z,29.82
2022-12-18T00:34:56.169Z,29.81
2022-12-18T00:35:56.382Z,29.82
2022-12-18T00:36:56.629Z,29.82
2022-12-18T00:37:56.851Z,29.82
2022-12-18T00:38:57.089Z,29.82
2022-12-18T00:39:57.313Z,29.82
2022-12-18T00:40:57.565Z,29.82
2022-12-18T00:41:57.795Z,29.82
2022-12-18T00:42:58.042Z,29.82
2022-12-18T00:43:58.265Z,29.72
2022-12-18T00:44:58.510Z,29.72
2022-12-18T00:45:58.771Z,29.82
2022-12-18T00:46:58.976Z,29.82
2022-12-18T00:47:59.199Z,29.82
2022-12-18T00:48:59.432Z,29.82
2022-12-18T00:49:59.665Z,29.82
2022-12-18T00:50:59.898Z,29.72
2022-12-18T00:52:00.128Z,29.72
2022-12-18T00:53:00.373Z,29.72
2022-12-18T00:54:00.586Z,29.82
2022-12-18T00:55:05.990Z,29.72
2022-12-18T00:56:02.037Z,29.72
2022-12-18T00:57:01.225Z,29.71
2022-12-18T00:58:01.437Z,29.62
2022-12-18T00:59:01.677Z,29.82
2022-12-18T01:00:01.898Z,29.72
2022-12-18T01:01:02.276Z,29.72
2022-12-18T01:02:02.411Z,29.52
2022-12-18T01:03:02.541Z,29.72
2022-12-18T01:04:02.750Z,29.72
2022-12-18T01:05:02.979Z,29.71
2022-12-18T01:06:03.227Z,29.71
2022-12-18T01:07:03.448Z,29.72
2022-12-18T01:08:03.696Z,29.62
2022-12-18T01:09:03.900Z,29.72
2022-12-18T01:10:04.141Z,29.71
2022-12-18T01:11:04.359Z,29.71
2022-12-18T01:12:04.591Z,29.61
2022-12-18T01:13:04.821Z,29.72
2022-12-18T01:14:05.063Z,29.72
2022-12-18T01:15:05.291Z,29.72
2022-12-18T01:16:05.539Z,29.71
2022-12-18T01:17:05.743Z,29.62
2022-12-18T01:18:05.985Z,29.62
2022-12-18T01:19:06.220Z,29.71
2022-12-18T01:20:06.452Z,29.62
2022-12-18T01:21:06.675Z,29.62
2022-12-18T01:22:06.933Z,29.62
2022-12-18T01:23:07.164Z,29.62
2022-12-18T01:24:07.418Z,29.62
2022-12-18T01:25:07.643Z,29.52
2022-12-18T01:26:07.884Z,29.72
2022-12-18T01:27:08.106Z,29.62
2022-12-18T01:28:08.357Z,29.62
2022-12-18T01:29:08.585Z,29.71
2022-12-18T01:30:08.845Z,29.62
2022-12-18T01:31:09.117Z,29.62
2022-12-18T01:32:09.383Z,29.62
2022-12-18T01:33:09.477Z,29.62
2022-12-18T01:34:09.719Z,29.62
2022-12-18T01:35:09.948Z,29.62
2022-12-18T01:36:10.179Z,29.62
2022-12-18T01:37:10.410Z,29.62
2022-12-18T01:38:10.630Z,29.62
2022-12-18T01:39:10.859Z,29.52
2022-12-18T01:40:11.100Z,29.62
2022-12-18T01:41:11.330Z,29.62
2022-12-18T01:42:11.562Z,29.62
2022-12-18T01:43:11.836Z,29.62
2022-12-18T01:44:12.055Z,29.62
2022-12-18T01:45:12.282Z,29.62
2022-12-18T01:46:12.545Z,29.62
2022-12-18T01:47:12.662Z,29.62
2022-12-18T01:48:12.911Z,29.62
2022-12-18T01:49:13.133Z,29.62
2022-12-18T01:50:13.420Z,29.62
2022-12-18T01:51:13.652Z,29.52
2022-12-18T01:52:13.935Z,29.43
2022-12-18T01:53:14.123Z,29.52
2022-12-18T01:54:14.364Z,29.52
2022-12-18T01:55:14.585Z,29.62
2022-12-18T01:56:14.824Z,29.62
2022-12-18T01:57:15.046Z,29.52
2022-12-18T01:58:15.315Z,29.62
2022-12-18T01:59:15.580Z,29.62
2022-12-18T02:00:15.826Z,29.62
2022-12-18T02:01:16.207Z,29.62
2022-12-18T02:02:16.436Z,29.52
2022-12-18T02:03:16.563Z,29.52
2022-12-18T02:04:16.827Z,29.62
2022-12-18T02:05:17.054Z,29.52
2022-12-18T02:06:17.310Z,29.43
2022-12-18T02:07:17.528Z,29.52
2022-12-18T02:08:17.770Z,29.52
2022-12-18T02:09:17.998Z,29.52
2022-12-18T02:10:18.268Z,29.43
2022-12-18T02:11:18.520Z,29.52
2022-12-18T02:12:18.768Z,29.52
2022-12-18T02:13:18.993Z,29.43
2022-12-18T02:14:19.238Z,29.52
2022-12-18T02:15:19.460Z,29.43
2022-12-18T02:16:19.750Z,29.43
2022-12-18T02:17:19.821Z,29.52
2022-12-18T02:18:20.061Z,29.52
2022-12-18T02:19:20.291Z,29.52
2022-12-18T02:20:20.542Z,29.52
2022-12-18T02:21:20.773Z,29.32
2022-12-18T02:22:21.014Z,29.43
2022-12-18T02:23:21.242Z,29.43
2022-12-18T02:24:21.502Z,29.43
2022-12-18T02:25:21.724Z,29.43
2022-12-18T02:26:21.972Z,29.43
2022-12-18T02:27:22.185Z,29.43
2022-12-18T02:28:22.413Z,29.51
2022-12-18T02:29:22.645Z,29.43
2022-12-18T02:30:22.968Z,29.43
2022-12-18T02:31:23.084Z,29.32
2022-12-18T02:32:23.333Z,29.41
2022-12-18T02:33:23.556Z,29.41
2022-12-18T02:34:23.806Z,29.41
2022-12-18T02:35:24.037Z,29.32
2022-12-18T02:36:24.306Z,29.43
2022-12-18T02:37:24.507Z,29.41
2022-12-18T02:38:24.756Z,29.41
2022-12-18T02:39:25.018Z,29.31
2022-12-18T02:40:25.268Z,29.31
2022-12-18T02:41:25.498Z,29.31
2022-12-18T02:42:25.747Z,29.43
2022-12-18T02:43:25.978Z,29.32
2022-12-18T02:44:26.210Z,29.41
2022-12-18T02:45:26.439Z,29.43
2022-12-18T02:46:26.689Z,29.41
2022-12-18T02:47:26.919Z,29.31
2022-12-18T02:48:27.170Z,29.41
2022-12-18T02:49:27.401Z,29.41
2022-12-18T02:50:27.641Z,29.32
2022-12-18T02:51:27.879Z,29.41
2022-12-18T02:52:28.101Z,29.31
2022-12-18T02:53:28.322Z,29.31
2022-12-18T02:54:28.551Z,29.31
2022-12-18T02:55:28.774Z,29.31
2022-12-18T02:56:29.012Z,29.22
2022-12-18T02:57:29.232Z,29.21
2022-12-18T02:58:29.474Z,29.31
2022-12-18T02:59:29.703Z,29.41
2022-12-18T03:00:29.937Z,29.31
2022-12-18T03:01:30.260Z,29.31
2022-12-18T03:02:30.486Z,29.31
2022-12-18T03:03:30.744Z,29.31
2022-12-18T03:04:30.835Z,29.31
2022-12-18T03:05:31.055Z,29.32
2022-12-18T03:06:31.314Z,29.32
2022-12-18T03:07:31.544Z,29.32
2022-12-18T03:08:31.785Z,29.32
2022-12-18T03:09:32.016Z,29.32
2022-12-18T03:10:32.256Z,29.22
2022-12-18T03:11:32.487Z,29.21
2022-12-18T03:12:32.771Z,29.32
2022-12-18T03:13:32.959Z,29.31
2022-12-18T03:14:33.206Z,29.32
2022-12-18T03:15:33.423Z,29.11
2022-12-18T03:16:33.734Z,29.22
2022-12-18T03:17:33.826Z,29.22
2022-12-18T03:18:34.069Z,29.32
2022-12-18T03:19:34.300Z,29.22
2022-12-18T03:20:34.573Z,29.22
2022-12-18T03:21:34.789Z,29.32
2022-12-18T03:22:35.037Z,29.22
2022-12-18T03:23:35.250Z,29.22
2022-12-18T03:24:35.501Z,29.22
2022-12-18T03:25:35.739Z,29.32
2022-12-18T03:26:35.992Z,29.22
2022-12-18T03:27:36.221Z,29.32
2022-12-18T03:28:36.473Z,29.22
2022-12-18T03:29:36.699Z,29.32
2022-12-18T03:30:36.964Z,29.32
2022-12-18T03:31:37.081Z,29.02
2022-12-18T03:32:37.343Z,29.22
2022-12-18T03:33:38.050Z,29.22
2022-12-18T03:34:37.840Z,29.12
2022-12-18T03:35:38.071Z,29.22
2022-12-18T03:36:38.334Z,29.12
2022-12-18T03:37:38.555Z,29.22
2022-12-18T03:38:38.835Z,29.12
2022-12-18T03:39:39.055Z,29.12
2022-12-18T03:40:39.295Z,29.22
2022-12-18T03:41:39.515Z,29.32
2022-12-18T03:42:39.760Z,29.22
2022-12-18T03:43:40.279Z,29.22
2022-12-18T03:44:40.226Z,29.12
2022-12-18T03:45:40.489Z,29.22
2022-12-18T03:46:40.628Z,29.22
2022-12-18T03:47:40.855Z,29.12
2022-12-18T03:48:41.097Z,29.22
2022-12-18T03:49:41.320Z,29.22
2022-12-18T03:50:41.558Z,29.12
2022-12-18T03:51:41.797Z,29.22
2022-12-18T03:52:42.020Z,29.12
2022-12-18T03:53:42.828Z,29.22
2022-12-18T03:54:42.521Z,29.12
2022-12-18T03:55:42.730Z,29.01
2022-12-18T03:56:42.970Z,29.02
2022-12-18T03:57:43.190Z,29.12
2022-12-18T03:58:43.431Z,29.12
2022-12-18T03:59:43.593Z,29.12
2022-12-18T04:00:43.831Z,29.12
2022-12-18T04:01:44.245Z,29.12
2022-12-18T04:02:44.416Z,29.12
2022-12-18T04:03:44.933Z,29.12
2022-12-18T04:04:44.835Z,29.22
2022-12-18T04:05:45.044Z,29.12
2022-12-18T04:06:45.283Z,29.22
2022-12-18T04:07:45.512Z,29.12
2022-12-18T04:08:45.752Z,29.02
2022-12-18T04:09:45.984Z,29.12
2022-12-18T04:10:46.243Z,29.02
2022-12-18T04:11:46.475Z,29.02
2022-12-18T04:12:46.715Z,29.12
2022-12-18T04:13:46.936Z,29.12
2022-12-18T04:14:47.185Z,29.12
2022-12-18T04:15:47.478Z,29.11
2022-12-18T04:16:47.696Z,29.02
2022-12-18T04:17:47.925Z,29.02
2022-12-18T04:18:48.176Z,29.01
2022-12-18T04:19:48.398Z,29.02
2022-12-18T04:20:48.630Z,29.02
2022-12-18T04:21:48.861Z,29.02
2022-12-18T04:22:49.098Z,29.02
2022-12-18T04:23:49.349Z,29.12
2022-12-18T04:24:49.589Z,29.01
2022-12-18T04:25:49.800Z,29.02
2022-12-18T04:26:50.051Z,29.01
2022-12-18T04:27:50.259Z,29.02
2022-12-18T04:28:50.508Z,29.12
2022-12-18T04:29:50.730Z,29.02
2022-12-18T04:30:51.033Z,29.02
2022-12-18T04:31:51.161Z,29.02
2022-12-18T04:32:52.464Z,29.02
2022-12-18T04:33:51.573Z,29.01
2022-12-18T04:34:51.803Z,29.12
2022-12-18T04:35:52.031Z,29.01
2022-12-18T04:36:52.272Z,29.02
2022-12-18T04:37:52.501Z,29.12
2022-12-18T04:38:52.742Z,29.02
2022-12-18T04:39:52.963Z,29.02
2022-12-18T04:40:53.212Z,29.02
2022-12-18T04:41:53.474Z,29.02
2022-12-18T04:42:53.727Z,29.02
2022-12-18T04:43:53.924Z,29.12
2022-12-18T04:44:54.175Z,29.02
2022-12-18T04:45:54.395Z,29.12
2022-12-18T04:46:54.696Z,29.02
2022-12-18T04:47:54.763Z,29.02
2022-12-18T04:48:55.006Z,29.02
2022-12-18T04:49:55.225Z,29.02
2022-12-18T04:50:55.465Z,29.02
2022-12-18T04:51:55.693Z,29.02
2022-12-18T04:52:55.927Z,28.92
2022-12-18T04:53:56.147Z,29.02
2022-12-18T04:54:56.384Z,28.92
2022-12-18T04:55:56.597Z,28.82
2022-12-18T04:56:56.839Z,28.92
2022-12-18T04:57:57.070Z,29.02
2022-12-18T04:58:57.298Z,29.02
2022-12-18T04:59:57.528Z,29.12
2022-12-18T05:00:57.761Z,29.12
2022-12-18T05:01:58.107Z,29.02
2022-12-18T05:02:58.386Z,29.02
2022-12-18T05:03:58.403Z,29.02
2022-12-18T05:04:58.670Z,28.92
2022-12-18T05:05:58.882Z,28.92
2022-12-18T05:06:59.129Z,28.92
2022-12-18T05:07:59.333Z,29.02
2022-12-18T05:08:59.572Z,28.92
2022-12-18T05:09:59.792Z,29.02
2022-12-18T05:11:00.044Z,29.02
2022-12-18T05:12:00.273Z,28.92
2022-12-18T05:13:01.262Z,29.02
2022-12-18T05:14:00.746Z,29.02
2022-12-18T05:15:00.992Z,28.92
2022-12-18T05:16:01.247Z,28.92
2022-12-18T05:17:01.548Z,29.02
2022-12-18T05:18:01.617Z,29.02
2022-12-18T05:19:01.865Z,29.02
2022-12-18T05:20:02.114Z,29.02
2022-12-18T05:21:02.323Z,28.92
2022-12-18T05:22:02.575Z,28.92
2022-12-18T05:23:02.795Z,28.82
2022-12-18T05:24:03.026Z,28.92
2022-12-18T05:25:03.238Z,28.92
2022-12-18T05:26:03.478Z,29.02
2022-12-18T05:27:03.720Z,28.92
2022-12-18T05:28:03.957Z,29.02
2022-12-18T05:29:04.168Z,28.92
2022-12-18T05:30:04.427Z,28.92
2022-12-18T05:31:04.687Z,28.92
2022-12-18T05:32:04.911Z,28.92
2022-12-18T05:33:05.127Z,28.92
2022-12-18T05:34:05.370Z,28.92
2022-12-18T05:35:05.577Z,28.82
2022-12-18T05:36:05.819Z,28.82
2022-12-18T05:37:06.041Z,28.82
2022-12-18T05:38:06.280Z,28.92
2022-12-18T05:39:06.497Z,28.82
2022-12-18T05:40:06.722Z,28.92
2022-12-18T05:41:06.939Z,29.02
2022-12-18T05:42:07.187Z,28.92
2022-12-18T05:43:07.399Z,28.92
2022-12-18T05:44:07.613Z,28.92
2022-12-18T05:45:07.837Z,28.92
2022-12-18T05:46:08.164Z,28.82
2022-12-18T05:47:08.253Z,28.82
2022-12-18T05:48:08.494Z,28.92
2022-12-18T05:49:08.702Z,28.92
2022-12-18T05:50:08.924Z,28.92
2022-12-18T05:51:09.133Z,28.92
2022-12-18T05:52:09.374Z,28.92
2022-12-18T05:53:09.595Z,28.92
2022-12-18T05:54:09.834Z,28.92
2022-12-18T05:55:09.956Z,28.82
2022-12-18T05:56:10.197Z,28.82
2022-12-18T05:57:10.426Z,28.82
2022-12-18T05:58:10.667Z,29.02
2022-12-18T05:59:10.877Z,28.92
2022-12-18T06:00:11.096Z,28.92
2022-12-18T06:01:11.327Z,28.82
2022-12-18T06:02:11.669Z,28.92
2022-12-18T06:03:11.906Z,28.82
2022-12-18T06:04:12.089Z,28.92
2022-12-18T06:05:12.288Z,28.92
2022-12-18T06:06:12.528Z,28.92
2022-12-18T06:07:13.838Z,28.82
2022-12-18T06:08:12.857Z,28.82
2022-12-18T06:09:12.959Z,28.72
2022-12-18T06:10:13.199Z,28.82
2022-12-18T06:11:13.430Z,28.92
2022-12-18T06:12:13.651Z,28.82
2022-12-18T06:13:13.928Z,28.82
2022-12-18T06:14:14.152Z,28.82
2022-12-18T06:15:14.383Z,28.82
2022-12-18T06:16:14.727Z,28.92
2022-12-18T06:17:14.862Z,28.92
2022-12-18T06:18:15.142Z,28.92
2022-12-18T06:19:15.342Z,28.82
2022-12-18T06:20:15.523Z,28.92
2022-12-18T06:21:15.803Z,28.92
2022-12-18T06:22:16.024Z,28.92
2022-12-18T06:23:16.275Z,28.92
2022-12-18T06:24:16.484Z,28.82
2022-12-18T06:25:16.704Z,28.82
2022-12-18T06:26:16.934Z,28.62
2022-12-18T06:27:17.176Z,28.82
2022-12-18T06:28:17.395Z,28.82
2022-12-18T06:29:17.643Z,28.72
2022-12-18T06:30:17.865Z,28.72
2022-12-18T06:31:18.151Z,28.82
2022-12-18T06:32:18.339Z,28.82
2022-12-18T06:33:18.587Z,28.82
2022-12-18T06:34:18.816Z,28.82
2022-12-18T06:35:19.056Z,28.82
2022-12-18T06:36:19.198Z,28.82
2022-12-18T06:37:19.437Z,28.82
2022-12-18T06:38:19.708Z,28.82
2022-12-18T06:39:19.899Z,28.82
2022-12-18T06:40:20.117Z,28.72
2022-12-18T06:41:20.342Z,28.72
2022-12-18T06:42:20.561Z,28.72
2022-12-18T06:43:20.810Z,28.82
2022-12-18T06:44:21.039Z,28.82
2022-12-18T06:45:21.280Z,28.82
2022-12-18T06:46:21.551Z,28.72
2022-12-18T06:47:21.762Z,28.82
2022-12-18T06:48:21.994Z,28.72
2022-12-18T06:49:25.042Z,28.72
2022-12-18T06:50:23.433Z,28.92
2022-12-18T06:51:22.619Z,28.72
2022-12-18T06:52:22.823Z,28.72
2022-12-18T06:53:23.042Z,28.62
2022-12-18T06:54:23.262Z,28.72
2022-12-18T06:55:23.423Z,28.72
2022-12-18T06:56:23.667Z,28.82
2022-12-18T06:57:23.914Z,28.82
2022-12-18T06:58:24.156Z,28.72
2022-12-18T06:59:24.445Z,28.72
2022-12-18T07:00:24.635Z,28.82
2022-12-18T07:01:24.973Z,28.72
2022-12-18T07:02:25.215Z,28.62
2022-12-18T07:03:25.378Z,28.72
2022-12-18T07:04:25.624Z,28.82
2022-12-18T07:05:25.905Z,28.72
2022-12-18T07:06:26.149Z,28.72
2022-12-18T07:07:26.407Z,28.82
2022-12-18T07:08:26.637Z,28.72
2022-12-18T07:09:26.898Z,28.72
2022-12-18T07:10:27.119Z,28.82
2022-12-18T07:11:27.378Z,28.72
2022-12-18T07:12:27.610Z,28.62
2022-12-18T07:13:27.874Z,28.72
2022-12-18T07:14:28.101Z,28.82
2022-12-18T07:15:28.391Z,28.62
2022-12-18T07:16:28.674Z,28.52
2022-12-18T07:17:28.921Z,28.72
2022-12-18T07:18:29.160Z,28.72
2022-12-18T07:19:29.401Z,28.52
2022-12-18T07:20:29.612Z,28.62
2022-12-18T07:21:29.733Z,28.72
2022-12-18T07:22:29.970Z,28.72
2022-12-18T07:23:30.233Z,28.82
2022-12-18T07:24:30.462Z,28.72
2022-12-18T07:25:30.724Z,28.62
2022-12-18T07:26:30.953Z,28.72
2022-12-18T07:27:31.216Z,28.72
2022-12-18T07:28:31.583Z,28.72
2022-12-18T07:29:31.663Z,28.82
2022-12-18T07:30:31.894Z,28.62
2022-12-18T07:31:32.185Z,28.62
2022-12-18T07:32:32.284Z,28.62
2022-12-18T07:33:32.546Z,28.72
2022-12-18T07:34:32.673Z,28.62
2022-12-18T07:35:32.925Z,28.72
2022-12-18T07:36:33.155Z,28.62
2022-12-18T07:37:33.396Z,28.72
2022-12-18T07:38:33.637Z,28.52
2022-12-18T07:39:33.877Z,28.62
2022-12-18T07:40:34.130Z,28.62
2022-12-18T07:41:34.367Z,28.72
2022-12-18T07:42:34.612Z,28.64
2022-12-18T07:43:34.877Z,28.62
2022-12-18T07:44:35.000Z,28.62
2022-12-18T07:45:35.324Z,28.62
2022-12-18T07:46:35.452Z,28.52
2022-12-18T07:47:35.719Z,28.72
2022-12-18T07:48:35.859Z,28.72
2022-12-18T07:49:37.122Z,28.62
2022-12-18T07:50:36.310Z,28.62
2022-12-18T07:51:36.581Z,28.72
2022-12-18T07:52:36.832Z,28.52
2022-12-18T07:53:37.434Z,28.62
2022-12-18T07:54:37.349Z,28.42
2022-12-18T07:55:59.821Z,28.42
2022-12-18T07:56:38.862Z,28.52
2022-12-18T07:57:57.781Z,28.62
2022-12-18T07:58:39.311Z,28.42
2022-12-18T07:59:38.523Z,28.32
2022-12-18T08:00:38.783Z,28.52
2022-12-18T08:01:39.138Z,28.52
2022-12-18T08:02:39.401Z,28.52
2022-12-18T08:03:39.910Z,28.52
2022-12-18T08:04:39.755Z,28.62
2022-12-18T08:05:40.042Z,28.42
2022-12-18T08:06:43.673Z,28.62
2022-12-18T08:07:41.426Z,28.52
2022-12-18T08:08:40.635Z,28.62
2022-12-18T08:09:40.919Z,28.52
2022-12-18T08:10:41.074Z,28.72
2022-12-18T08:11:41.356Z,28.52
2022-12-18T08:12:41.501Z,28.62
2022-12-18T08:13:42.275Z,28.62
2022-12-18T08:14:42.008Z,28.52
2022-12-18T08:15:42.301Z,28.42
2022-12-18T08:16:42.472Z,28.42
2022-12-18T08:17:42.727Z,28.62
2022-12-18T08:18:42.988Z,28.62
2022-12-18T08:19:43.259Z,28.52
2022-12-18T08:20:43.399Z,28.52
2022-12-18T08:21:43.659Z,28.52
2022-12-18T08:22:43.916Z,28.52
2022-12-18T08:23:44.338Z,28.42
2022-12-18T08:24:44.350Z,28.42
2022-12-18T08:25:44.621Z,28.52
2022-12-18T08:26:55.870Z,28.52
2022-12-18T08:27:46.011Z,28.42
2022-12-18T08:28:45.199Z,28.42
2022-12-18T08:29:45.452Z,28.62
2022-12-18T08:30:45.625Z,28.52
2022-12-18T08:31:45.913Z,28.52
2022-12-18T08:32:46.143Z,28.52
2022-12-18T08:33:46.425Z,28.42
2022-12-18T08:34:46.585Z,28.42
2022-12-18T08:35:46.847Z,28.62
2022-12-18T08:36:46.991Z,28.52
2022-12-18T08:37:47.254Z,28.62
2022-12-18T08:38:47.385Z,28.52
2022-12-18T08:39:47.655Z,28.52
2022-12-18T08:40:47.785Z,28.52
2022-12-18T08:41:48.055Z,28.52
2022-12-18T08:42:48.296Z,28.42
2022-12-18T08:43:48.573Z,28.42
2022-12-18T08:44:48.817Z,28.42
2022-12-18T08:45:49.148Z,28.42
2022-12-18T08:46:49.277Z,28.42
2022-12-18T08:47:49.561Z,28.42
2022-12-18T08:48:49.708Z,28.42
2022-12-18T08:49:49.989Z,28.42
2022-12-18T08:50:50.230Z,28.52
2022-12-18T08:51:50.509Z,28.52
2022-12-18T08:52:50.748Z,28.62
2022-12-18T08:53:51.029Z,28.52
2022-12-18T08:54:51.170Z,28.62
2022-12-18T08:55:51.440Z,28.52
2022-12-18T08:56:51.691Z,28.42
2022-12-18T08:57:51.980Z,28.32
2022-12-18T08:58:52.121Z,28.52
2022-12-18T08:59:52.401Z,28.42
2022-12-18T09:00:52.593Z,28.42
2022-12-18T09:01:52.956Z,28.42
2022-12-18T09:02:53.052Z,28.42
2022-12-18T09:03:53.231Z,28.42
2022-12-18T09:04:57.329Z,28.42
2022-12-18T09:05:53.570Z,28.52
2022-12-18T09:06:53.703Z,28.62
2022-12-18T09:07:53.968Z,28.42
2022-12-18T09:08:54.113Z,28.42
2022-12-18T09:09:54.374Z,28.62
2022-12-18T09:10:54.504Z,28.52
2022-12-18T09:11:54.795Z,28.42
2022-12-18T09:12:54.926Z,28.42
2022-12-18T09:13:55.195Z,28.42
2022-12-18T09:14:55.326Z,28.62
2022-12-18T09:15:55.596Z,28.52
2022-12-18T09:16:55.919Z,28.52
2022-12-18T09:17:56.124Z,28.42
2022-12-18T09:18:56.267Z,28.42
2022-12-18T09:19:56.525Z,28.52
2022-12-18T09:20:56.658Z,28.42
2022-12-18T09:21:56.928Z,28.52
2022-12-18T09:22:57.170Z,28.42
2022-12-18T09:23:57.449Z,28.52
2022-12-18T09:24:57.588Z,28.42
2022-12-18T09:25:57.868Z,28.42
2022-12-18T09:26:58.282Z,28.42
2022-12-18T09:27:58.409Z,28.52
2022-12-18T09:28:58.659Z,28.42
2022-12-18T09:29:58.910Z,28.42
2022-12-18T09:30:59.198Z,28.52
2022-12-18T09:31:59.349Z,28.52
2022-12-18T09:32:59.642Z,28.42
2022-12-18T09:33:59.861Z,28.42
2022-12-18T09:35:00.125Z,28.32
2022-12-18T09:36:00.363Z,28.42
2022-12-18T09:37:00.644Z,28.42
2022-12-18T09:38:00.892Z,28.32
2022-12-18T09:39:06.291Z,28.42
2022-12-18T09:40:02.405Z,28.42
2022-12-18T09:41:01.623Z,28.32
2022-12-18T09:42:01.763Z,28.42
2022-12-18T09:43:02.045Z,28.32
2022-12-18T09:44:02.185Z,28.42
2022-12-18T09:45:02.509Z,28.42
2022-12-18T09:46:02.654Z,28.42
2022-12-18T09:47:02.816Z,28.42
2022-12-18T09:48:02.953Z,28.32
2022-12-18T09:49:03.186Z,28.42
2022-12-18T09:50:03.434Z,28.42
2022-12-18T09:51:03.706Z,28.52
2022-12-18T09:52:03.946Z,28.32
2022-12-18T09:53:04.286Z,28.32
2022-12-18T09:54:04.445Z,28.32
2022-12-18T09:55:04.707Z,28.32
2022-12-18T09:56:04.961Z,28.42
2022-12-18T09:57:05.238Z,28.51
2022-12-18T09:58:05.490Z,28.41
2022-12-18T09:59:05.668Z,28.42
2022-12-18T10:00:05.918Z,28.42
2022-12-18T10:01:06.201Z,28.41
2022-12-18T10:02:06.534Z,28.41
2022-12-18T10:03:06.759Z,28.41
2022-12-18T10:04:06.939Z,28.41
2022-12-18T10:05:07.101Z,28.41
2022-12-18T10:06:07.251Z,28.51
2022-12-18T10:07:09.402Z,28.41
2022-12-18T10:08:07.709Z,28.41
2022-12-18T10:09:07.982Z,28.41
2022-12-18T10:10:08.231Z,28.41
2022-12-18T10:11:08.514Z,28.51
2022-12-18T10:12:08.651Z,28.51
2022-12-18T10:13:08.923Z,28.51
2022-12-18T10:14:09.097Z,28.41
2022-12-18T10:15:09.272Z,28.51
2022-12-18T10:16:09.498Z,28.51
2022-12-18T10:17:09.764Z,28.51
2022-12-18T10:18:09.914Z,28.51
2022-12-18T10:19:10.205Z,28.41
2022-12-18T10:20:10.346Z,28.41
2022-12-18T10:21:10.615Z,28.51
2022-12-18T10:22:10.778Z,28.41
2022-12-18T10:23:10.936Z,28.51
2022-12-18T10:24:11.076Z,28.41
2022-12-18T10:25:11.347Z,28.52
2022-12-18T10:26:11.496Z,28.52
2022-12-18T10:27:11.787Z,28.51
2022-12-18T10:28:11.918Z,28.52
2022-12-18T10:29:12.189Z,28.51
2022-12-18T10:30:12.328Z,28.51
2022-12-18T10:31:12.654Z,28.51
2022-12-18T10:32:12.748Z,28.51
2022-12-18T10:33:13.019Z,28.51
2022-12-18T10:34:13.168Z,28.51
2022-12-18T10:35:13.441Z,28.51
2022-12-18T10:36:13.679Z,28.62
2022-12-18T10:37:13.949Z,28.61
2022-12-18T10:38:14.201Z,28.51
2022-12-18T10:39:14.471Z,28.51
2022-12-18T10:40:20.164Z,28.61
2022-12-18T10:41:15.970Z,28.52
2022-12-18T10:42:15.160Z,28.62
2022-12-18T10:43:15.432Z,28.51
2022-12-18T10:44:15.572Z,28.52
2022-12-18T10:45:15.851Z,28.52
2022-12-18T10:46:16.091Z,28.62
2022-12-18T10:47:16.342Z,28.62
2022-12-18T10:48:16.483Z,28.62
2022-12-18T10:49:16.763Z,28.62
2022-12-18T10:50:17.004Z,28.72
2022-12-18T10:51:17.254Z,28.72
2022-12-18T10:52:17.503Z,28.72
2022-12-18T10:53:17.785Z,28.62
2022-12-18T10:54:18.014Z,28.72
2022-12-18T10:55:18.304Z,28.62
2022-12-18T10:56:18.425Z,28.72
2022-12-18T10:57:18.687Z,28.72
2022-12-18T10:58:22.229Z,28.62
2022-12-18T10:59:20.067Z,28.62
2022-12-18T11:00:19.237Z,28.62
2022-12-18T11:01:19.602Z,28.62
2022-12-18T11:02:19.814Z,28.62
2022-12-18T11:03:19.988Z,28.62
2022-12-18T11:04:20.108Z,28.62
2022-12-18T11:05:20.387Z,28.72
2022-12-18T11:06:20.578Z,28.62
2022-12-18T11:07:20.819Z,28.62
2022-12-18T11:08:20.957Z,28.52
2022-12-18T11:09:21.229Z,28.62
2022-12-18T11:10:21.378Z,28.62
2022-12-18T11:11:21.643Z,28.62
2022-12-18T11:12:21.899Z,28.72
2022-12-18T11:13:22.180Z,28.62
2022-12-18T11:14:22.322Z,28.62
2022-12-18T11:15:22.602Z,28.62
2022-12-18T11:16:22.789Z,28.62
2022-12-18T11:17:25.921Z,28.62
2022-12-18T11:18:23.171Z,28.62
2022-12-18T11:19:23.558Z,28.62
2022-12-18T11:20:23.639Z,28.62
2022-12-18T11:21:23.892Z,28.72
2022-12-18T11:22:24.031Z,28.82
2022-12-18T11:23:24.301Z,28.72
2022-12-18T11:24:24.553Z,28.72
2022-12-18T11:25:33.479Z,28.62
2022-12-18T11:26:26.015Z,28.62
2022-12-18T11:27:25.222Z,28.72
2022-12-18T11:28:25.454Z,28.62
2022-12-18T11:29:25.732Z,28.62
2022-12-18T11:30:25.864Z,28.62
2022-12-18T11:31:26.222Z,28.72
2022-12-18T11:32:26.336Z,28.62
2022-12-18T11:33:26.609Z,28.72
2022-12-18T11:34:29.423Z,28.82
2022-12-18T11:35:27.017Z,28.72
2022-12-18T11:36:27.276Z,28.72
2022-12-18T11:37:27.557Z,28.72
2022-12-18T11:38:27.690Z,28.62
2022-12-18T11:39:27.980Z,28.72
2022-12-18T11:40:28.118Z,28.72
2022-12-18T11:41:28.390Z,28.72
2022-12-18T11:42:28.540Z,28.82
2022-12-18T11:43:28.826Z,28.72
2022-12-18T11:44:29.069Z,28.72
2022-12-18T11:45:29.354Z,28.72
2022-12-18T11:46:29.613Z,28.72
2022-12-18T11:47:29.811Z,28.82
2022-12-18T11:48:30.052Z,28.82
2022-12-18T11:49:30.340Z,28.72
2022-12-18T11:50:30.481Z,28.72
2022-12-18T11:51:30.760Z,28.72
2022-12-18T11:52:31.001Z,28.92
2022-12-18T11:53:31.263Z,28.72
2022-12-18T11:54:31.515Z,28.82
2022-12-18T11:55:31.799Z,28.82
2022-12-18T11:56:31.958Z,28.72
2022-12-18T11:57:32.222Z,28.72
2022-12-18T11:58:32.475Z,28.82
2022-12-18T11:59:32.754Z,28.72
2022-12-18T12:00:32.893Z,28.72
2022-12-18T12:01:34.785Z,28.72
2022-12-18T12:02:33.498Z,28.72
2022-12-18T12:03:33.735Z,28.82
2022-12-18T12:04:33.912Z,28.82
2022-12-18T12:05:34.069Z,28.92
2022-12-18T12:06:34.206Z,28.82
2022-12-18T12:07:34.466Z,28.72
2022-12-18T12:08:34.723Z,28.82
2022-12-18T12:09:35.014Z,28.82
2022-12-18T12:10:35.156Z,28.92
2022-12-18T12:11:35.414Z,28.92
2022-12-18T12:12:35.670Z,28.72
2022-12-18T12:13:35.928Z,28.82
2022-12-18T12:14:36.190Z,28.82
2022-12-18T12:15:36.476Z,28.92
2022-12-18T12:16:36.640Z,28.82
2022-12-18T12:17:36.800Z,28.72
2022-12-18T12:18:37.011Z,28.82
2022-12-18T12:19:37.270Z,28.92
2022-12-18T12:20:37.414Z,28.82
2022-12-18T12:21:37.690Z,28.82
2022-12-18T12:22:37.831Z,28.82
2022-12-18T12:23:38.111Z,28.82
2022-12-18T12:24:38.362Z,28.82
2022-12-18T12:25:38.631Z,28.82
2022-12-18T12:26:38.771Z,28.82
2022-12-18T12:27:38.961Z,28.82
2022-12-18T12:28:39.524Z,28.92
2022-12-18T12:29:39.483Z,28.92
2022-12-18T12:30:39.612Z,28.82
2022-12-18T12:31:39.955Z,28.82
2022-12-18T12:32:40.042Z,28.72
2022-12-18T12:33:40.653Z,28.92
2022-12-18T12:34:40.545Z,28.82
2022-12-18T12:35:40.833Z,28.92
2022-12-18T12:36:40.987Z,28.82
2022-12-18T12:37:41.175Z,28.72
2022-12-18T12:38:41.315Z,28.82
2022-12-18T12:39:41.603Z,28.82
2022-12-18T12:40:52.626Z,28.82
2022-12-18T12:41:42.966Z,28.82
2022-12-18T12:42:42.156Z,28.82
2022-12-18T12:43:49.588Z,28.92
2022-12-18T12:44:43.654Z,28.82
2022-12-18T12:45:42.888Z,29.02
2022-12-18T12:46:43.057Z,28.82
2022-12-18T12:47:43.556Z,29.02
2022-12-18T12:48:43.902Z,28.82
2022-12-18T12:49:43.828Z,28.92
2022-12-18T12:50:43.959Z,28.92
2022-12-18T12:51:44.137Z,28.92
2022-12-18T12:52:44.381Z,28.92
2022-12-18T12:53:45.260Z,28.92
2022-12-18T12:54:44.870Z,29.02
2022-12-18T12:55:45.050Z,28.92